createdAt,value
2018-06-30T00:00:31.211Z,5.07
2018-06-30T00:01:05.041Z,4.33
2018-06-30T00:01:38.901Z,2.80
2018-06-30T00:02:13.423Z,3.90
2018-06-30T00:02:47.919Z,4.83
2018-06-30T00:03:25.944Z,7.00
2018-06-30T00:03:59.777Z,6.50
2018-06-30T00:04:38.093Z,4.43
2018-06-30T00:05:15.379Z,3.57
2018-06-30T00:05:49.251Z,4.83
2018-06-30T00:06:24.787Z,4.60
2018-06-30T00:06:58.675Z,3.13
2018-06-30T00:07:33.163Z,2.70
2018-06-30T00:08:07.783Z,2.60
2018-06-30T00:08:41.689Z,1.80
2018-06-30T00:09:15.868Z,2.07
2018-06-30T00:09:50.377Z,3.67
2018-06-30T00:10:26.204Z,3.27
2018-06-30T00:11:00.563Z,2.83
2018-06-30T00:11:34.462Z,4.03
2018-06-30T00:12:09.280Z,7.73
2018-06-30T00:12:43.512Z,2.63
2018-06-30T00:13:17.481Z,2.10
2018-06-30T00:13:51.609Z,5.10
2018-06-30T00:14:25.831Z,5.03
2018-06-30T00:15:00.041Z,5.33
2018-06-30T00:15:34.489Z,2.80
2018-06-30T00:16:08.741Z,3.60
2018-06-30T00:16:42.975Z,4.10
2018-06-30T00:17:16.857Z,6.53
2018-06-30T00:17:50.757Z,2.87
2018-06-30T00:18:25.387Z,7.50
2018-06-30T00:18:59.239Z,5.37
2018-06-30T00:19:33.432Z,4.70
2018-06-30T00:20:07.633Z,3.73
2018-06-30T00:20:41.781Z,4.53
2018-06-30T00:21:15.993Z,4.10
2018-06-30T00:21:49.913Z,5.00
2018-06-30T00:22:24.162Z,5.87
2018-06-30T00:22:57.825Z,8.83
2018-06-30T00:23:32.205Z,5.77
2018-06-30T00:24:06.701Z,5.95
2018-06-30T00:24:40.917Z,5.30
2018-06-30T00:25:15.513Z,6.28
2018-06-30T00:25:49.395Z,6.00
2018-06-30T00:26:23.267Z,7.07
2018-06-30T00:27:02.975Z,7.47
2018-06-30T00:27:36.835Z,6.13
2018-06-30T00:28:11.075Z,8.00
2018-06-30T00:28:45.315Z,8.17
2018-06-30T00:29:19.181Z,7.07
2018-06-30T00:29:53.063Z,5.10
2018-06-30T00:30:27.119Z,7.00
2018-06-30T00:31:00.993Z,9.57
2018-06-30T00:31:35.227Z,13.93
2018-06-30T00:32:09.722Z,7.87
2018-06-30T00:32:43.615Z,7.23
2018-06-30T00:33:17.517Z,8.63
2018-06-30T00:33:51.775Z,7.43
2018-06-30T00:34:25.710Z,11.70
2018-06-30T00:34:59.936Z,7.67
2018-06-30T00:35:33.829Z,8.43
2018-06-30T00:36:08.464Z,9.83
2018-06-30T00:36:42.361Z,8.13
2018-06-30T00:37:16.479Z,7.45
2018-06-30T00:37:50.349Z,8.50
2018-06-30T00:38:24.560Z,8.57
2018-06-30T00:38:58.666Z,7.13
2018-06-30T00:39:32.651Z,7.42
2018-06-30T00:40:06.849Z,7.30
2018-06-30T00:40:40.753Z,9.40
2018-06-30T00:41:14.973Z,6.53
2018-06-30T00:41:49.195Z,6.10
2018-06-30T00:42:23.098Z,5.17
2018-06-30T00:42:56.991Z,7.30
2018-06-30T00:43:31.241Z,5.23
2018-06-30T00:44:07.807Z,6.27
2018-06-30T00:44:41.678Z,5.10
2018-06-30T00:45:15.591Z,4.97
2018-06-30T00:45:49.792Z,2.33
2018-06-30T00:46:23.978Z,3.30
2018-06-30T00:46:58.197Z,4.33
2018-06-30T00:47:32.087Z,4.17
2018-06-30T00:48:06.245Z,4.92
2018-06-30T00:48:40.222Z,2.80
2018-06-30T00:49:14.796Z,2.50
2018-06-30T00:49:48.984Z,3.67
2018-06-30T00:50:23.121Z,2.98
2018-06-30T00:50:56.961Z,2.77
2018-06-30T00:51:30.887Z,3.53
2018-06-30T00:52:05.002Z,3.08
2018-06-30T00:52:38.883Z,2.70
2018-06-30T00:53:12.777Z,3.27
2018-06-30T00:53:46.617Z,6.30
2018-06-30T00:54:20.791Z,3.97
2018-06-30T00:54:54.767Z,4.80
2018-06-30T00:55:29.139Z,5.13
2018-06-30T00:56:03.337Z,4.23
2018-06-30T00:56:37.479Z,3.45
2018-06-30T00:57:11.351Z,3.60
2018-06-30T00:57:45.905Z,2.60
2018-06-30T00:58:20.104Z,4.97
2018-06-30T00:58:54.303Z,4.23
2018-06-30T00:59:28.241Z,5.63
2018-06-30T01:00:02.482Z,5.03
2018-06-30T01:00:36.347Z,5.43
2018-06-30T01:01:10.479Z,3.75
2018-06-30T01:01:44.356Z,4.17
2018-06-30T01:02:18.595Z,3.80
2018-06-30T01:02:52.808Z,6.43
2018-06-30T01:03:26.813Z,3.47
2018-06-30T01:04:00.707Z,7.53
2018-06-30T01:04:34.975Z,6.50
2018-06-30T01:05:09.545Z,7.37
2018-06-30T01:05:43.441Z,4.93
2018-06-30T01:06:17.361Z,5.97
2018-06-30T01:06:51.599Z,4.43
2018-06-30T01:07:25.852Z,4.07
2018-06-30T01:08:00.264Z,3.93
2018-06-30T01:08:34.505Z,3.60
2018-06-30T01:09:09.153Z,6.73
2018-06-30T01:09:43.099Z,2.27
2018-06-30T01:10:17.146Z,3.90
2018-06-30T01:10:51.053Z,3.40
2018-06-30T01:11:25.253Z,4.70
2018-06-30T01:11:59.145Z,2.50
2018-06-30T01:12:33.343Z,3.37
2018-06-30T01:13:07.575Z,2.73
2018-06-30T01:13:41.752Z,2.95
2018-06-30T01:14:15.976Z,3.23
2018-06-30T01:14:49.923Z,3.20
2018-06-30T01:15:23.971Z,8.47
2018-06-30T01:15:57.919Z,2.47
2018-06-30T01:16:32.116Z,4.00
2018-06-30T01:17:06.463Z,5.20
2018-06-30T01:17:40.333Z,3.77
2018-06-30T01:18:14.524Z,2.80
2018-06-30T01:18:48.835Z,3.97
2018-06-30T01:19:22.670Z,6.00
2018-06-30T01:19:56.581Z,4.27
2018-06-30T01:20:30.454Z,5.27
2018-06-30T01:21:04.349Z,3.17
2018-06-30T01:21:38.723Z,4.33
2018-06-30T01:22:12.977Z,7.00
2018-06-30T01:22:47.182Z,4.70
2018-06-30T01:23:21.095Z,6.70
2018-06-30T01:23:54.975Z,5.73
2018-06-30T01:24:28.827Z,4.77
2018-06-30T01:25:03.093Z,5.07
2018-06-30T01:25:37.283Z,5.27
2018-06-30T01:26:11.159Z,5.53
2018-06-30T01:26:45.369Z,3.60
2018-06-30T01:27:19.573Z,3.33
2018-06-30T01:27:53.463Z,4.47
2018-06-30T01:28:27.953Z,3.12
2018-06-30T01:29:02.175Z,7.50
2018-06-30T01:29:36.079Z,3.30
2018-06-30T01:30:11.090Z,4.37
2018-06-30T01:30:45.192Z,4.58
2018-06-30T01:31:19.207Z,2.40
2018-06-30T01:31:53.193Z,4.50
2018-06-30T01:32:27.412Z,3.60
2018-06-30T01:33:01.279Z,7.73
2018-06-30T01:33:35.481Z,5.20
2018-06-30T01:34:09.686Z,4.07
2018-06-30T01:34:43.603Z,2.90
2018-06-30T01:35:17.853Z,5.60
2018-06-30T01:35:51.763Z,4.73
2018-06-30T01:36:25.675Z,4.90
2018-06-30T01:36:59.590Z,4.03
2018-06-30T01:37:33.463Z,5.80
2018-06-30T01:38:07.429Z,6.97
2018-06-30T01:38:41.209Z,6.77
2018-06-30T01:39:15.105Z,8.93
2018-06-30T01:39:49.047Z,6.57
2018-06-30T01:40:22.941Z,8.30
2018-06-30T01:40:57.145Z,6.10
2018-06-30T01:41:31.025Z,6.23
2018-06-30T01:42:05.865Z,5.70
2018-06-30T01:42:39.807Z,4.90
2018-06-30T01:43:14.005Z,5.33
2018-06-30T01:43:47.911Z,2.90
2018-06-30T01:44:21.781Z,5.93
2018-06-30T01:44:56.348Z,3.20
2018-06-30T01:45:30.239Z,5.67
2018-06-30T01:46:04.550Z,2.97
2018-06-30T01:46:38.473Z,2.83
2018-06-30T01:47:12.333Z,2.20
2018-06-30T01:47:46.225Z,4.43
2018-06-30T01:48:20.377Z,2.12
2018-06-30T01:48:54.247Z,3.10
2018-06-30T01:49:28.097Z,4.50
2018-06-30T01:50:02.469Z,6.50
2018-06-30T01:50:43.903Z,6.72
2018-06-30T01:51:17.789Z,13.27
2018-06-30T01:51:51.967Z,15.30
2018-06-30T01:52:26.173Z,14.50
2018-06-30T01:53:00.040Z,14.17
2018-06-30T01:53:34.232Z,10.83
2018-06-30T01:54:08.406Z,7.60
2018-06-30T01:54:42.591Z,7.20
2018-06-30T01:55:16.454Z,5.63
2018-06-30T01:55:50.375Z,5.90
2018-06-30T01:56:24.235Z,5.17
2018-06-30T01:56:58.195Z,3.23
2018-06-30T01:57:32.079Z,2.80
2018-06-30T01:58:06.624Z,5.57
2018-06-30T01:58:40.779Z,4.72
2018-06-30T01:59:14.649Z,2.87
2018-06-30T01:59:48.849Z,2.47
2018-06-30T02:00:22.767Z,3.10
2018-06-30T02:00:57.242Z,1.65
2018-06-30T02:01:31.127Z,1.60
2018-06-30T02:02:05.539Z,2.93
2018-06-30T02:02:39.433Z,4.80
2018-06-30T02:03:13.313Z,3.50
2018-06-30T02:03:47.463Z,3.42
2018-06-30T02:04:21.365Z,3.30
2018-06-30T02:04:55.277Z,8.67
2018-06-30T02:05:29.169Z,3.67
2018-06-30T02:06:03.368Z,2.85
2018-06-30T02:06:37.253Z,1.97
2018-06-30T02:07:11.813Z,3.00
2018-06-30T02:07:45.709Z,3.10
2018-06-30T02:08:19.605Z,2.70
2018-06-30T02:08:53.467Z,2.70
2018-06-30T02:09:27.707Z,3.00
2018-06-30T02:10:01.948Z,6.20
2018-06-30T02:10:35.826Z,3.40
2018-06-30T02:11:09.753Z,4.10
2018-06-30T02:11:44.010Z,3.10
2018-06-30T02:12:18.503Z,3.92
2018-06-30T02:12:52.982Z,2.80
2018-06-30T02:13:26.849Z,4.37
2018-06-30T02:14:00.750Z,6.00
2018-06-30T02:14:37.711Z,3.97
2018-06-30T02:15:11.773Z,2.43
2018-06-30T02:15:45.641Z,4.67
2018-06-30T02:16:19.561Z,2.73
2018-06-30T02:16:55.161Z,6.10
2018-06-30T02:17:28.985Z,4.17
2018-06-30T02:18:03.547Z,2.10
2018-06-30T02:18:37.739Z,2.63
2018-06-30T02:19:12.050Z,2.50
2018-06-30T02:19:45.923Z,2.77
2018-06-30T02:20:19.797Z,2.37
2018-06-30T02:20:53.762Z,3.37
2018-06-30T02:21:28.050Z,5.85
2018-06-30T02:22:01.927Z,2.37
2018-06-30T02:22:35.821Z,3.30
2018-06-30T02:23:10.023Z,2.00
2018-06-30T02:23:43.999Z,2.37
2018-06-30T02:24:18.233Z,3.00
2018-06-30T02:24:52.385Z,2.10
2018-06-30T02:25:26.267Z,2.80
2018-06-30T02:31:08.684Z,3.33
2018-06-30T02:31:44.413Z,5.00
2018-06-30T02:32:18.685Z,2.40
2018-06-30T02:32:52.629Z,1.30
2018-06-30T02:33:26.730Z,2.02
2018-06-30T02:34:00.631Z,2.13
2018-06-30T02:34:34.869Z,3.20
2018-06-30T02:35:09.240Z,1.37
2018-06-30T02:35:43.494Z,2.93
2018-06-30T02:36:17.741Z,4.07
2018-06-30T02:36:52.043Z,2.20
2018-06-30T02:37:25.926Z,3.10
2018-06-30T02:38:00.194Z,3.57
2018-06-30T02:38:34.397Z,2.63
2018-06-30T02:39:09.659Z,3.20
2018-06-30T02:39:43.726Z,1.43
2018-06-30T02:40:17.619Z,2.23
2018-06-30T02:40:51.848Z,3.43
2018-06-30T02:41:25.719Z,2.77
2018-06-30T02:41:59.918Z,1.87
2018-06-30T02:42:33.788Z,1.87
2018-06-30T02:43:08.028Z,4.37
2018-06-30T02:43:42.236Z,3.10
2018-06-30T02:44:16.493Z,2.10
2018-06-30T02:44:50.637Z,2.05
2018-06-30T02:45:24.491Z,2.90
2018-06-30T02:45:58.828Z,1.83
2018-06-30T02:46:33.270Z,3.57
2018-06-30T02:47:07.506Z,2.57
2018-06-30T02:47:41.730Z,8.50
2018-06-30T02:48:15.645Z,2.03
2018-06-30T02:48:49.523Z,1.40
2018-06-30T02:49:23.727Z,1.97
2018-06-30T02:49:57.725Z,1.90
2018-06-30T02:50:31.582Z,2.67
2018-06-30T02:51:05.505Z,6.77
2018-06-30T02:51:39.707Z,1.80
2018-06-30T02:52:13.607Z,4.00
2018-06-30T02:52:47.812Z,3.80
2018-06-30T02:53:21.700Z,5.47
2018-06-30T02:53:55.609Z,2.07
2018-06-30T02:54:29.653Z,2.10
2018-06-30T02:55:03.613Z,5.30
2018-06-30T02:55:38.022Z,4.23
2018-06-30T02:56:11.892Z,4.03
2018-06-30T02:56:45.739Z,2.10
2018-06-30T02:57:19.658Z,1.83
2018-06-30T02:57:54.164Z,7.03
2018-06-30T02:58:35.210Z,2.93
2018-06-30T02:59:09.060Z,3.10
2018-06-30T02:59:43.325Z,2.30
2018-06-30T03:00:17.498Z,2.00
2018-06-30T03:00:51.350Z,1.90
2018-06-30T03:01:25.303Z,2.03
2018-06-30T03:01:59.414Z,2.50
2018-06-30T03:02:33.282Z,2.43
2018-06-30T03:03:07.202Z,2.57
2018-06-30T03:03:40.848Z,2.07
2018-06-30T03:04:14.961Z,2.90
2018-06-30T03:04:48.827Z,1.70
2018-06-30T03:05:22.674Z,2.07
2018-06-30T03:05:56.889Z,2.07
2018-06-30T03:06:30.754Z,1.30
2018-06-30T03:07:04.608Z,1.30
2018-06-30T03:07:38.634Z,2.47
2018-06-30T03:08:12.839Z,6.50
2018-06-30T03:08:46.761Z,6.97
2018-06-30T03:09:20.785Z,2.07
2018-06-30T03:09:56.032Z,3.20
2018-06-30T03:10:29.885Z,3.20
2018-06-30T03:11:03.800Z,2.93
2018-06-30T03:11:37.417Z,2.70
2018-06-30T03:12:11.161Z,1.77
2018-06-30T03:12:45.021Z,1.60
2018-06-30T03:13:19.196Z,3.13
2018-06-30T03:13:53.359Z,2.02
2018-06-30T03:14:27.558Z,2.60
2018-06-30T03:15:01.422Z,3.33
2018-06-30T03:15:35.282Z,5.30
2018-06-30T03:16:09.604Z,2.07
2018-06-30T03:16:44.110Z,4.00
2018-06-30T03:17:17.974Z,6.53
2018-06-30T03:17:51.829Z,2.93
2018-06-30T03:18:25.691Z,8.70
2018-06-30T03:18:59.571Z,10.63
2018-06-30T03:19:33.462Z,9.27
2018-06-30T03:20:07.670Z,8.07
2018-06-30T03:20:42.140Z,10.68
2018-06-30T03:21:16.229Z,7.87
2018-06-30T03:21:50.117Z,5.30
2018-06-30T03:22:24.370Z,7.20
2018-06-30T03:22:58.518Z,5.60
2018-06-30T03:23:32.674Z,4.15
2018-06-30T03:24:06.965Z,5.33
2018-06-30T03:24:40.910Z,6.90
2018-06-30T03:25:14.768Z,4.23
2018-06-30T03:25:48.966Z,10.30
2018-06-30T03:26:22.828Z,4.33
2018-06-30T03:26:57.010Z,5.28
2018-06-30T03:27:31.211Z,3.93
2018-06-30T03:28:05.113Z,5.10
2018-06-30T03:28:39.333Z,5.40
2018-06-30T03:29:13.239Z,5.53
2018-06-30T03:29:47.117Z,5.93
2018-06-30T03:30:21.015Z,4.60
2018-06-30T03:30:54.888Z,4.47
2018-06-30T03:31:28.787Z,3.80
2018-06-30T03:32:02.880Z,3.57
2018-06-30T03:32:37.020Z,5.55
2018-06-30T03:33:11.254Z,3.20
2018-06-30T03:33:45.443Z,3.17
2018-06-30T03:34:19.348Z,4.13
2018-06-30T03:34:53.235Z,4.20
2018-06-30T03:35:27.132Z,5.40
2018-06-30T03:36:01.278Z,3.10
2018-06-30T03:36:35.476Z,3.53
2018-06-30T03:37:09.342Z,2.47
2018-06-30T03:37:43.215Z,3.53
2018-06-30T03:38:23.915Z,5.20
2018-06-30T03:38:58.482Z,6.60
2018-06-30T03:39:32.346Z,2.93
2018-06-30T03:40:06.216Z,6.53
2018-06-30T03:40:40.060Z,6.13
2018-06-30T03:41:13.938Z,4.33
2018-06-30T03:41:48.163Z,3.20
2018-06-30T03:42:22.035Z,5.63
2018-06-30T03:42:55.637Z,5.57
2018-06-30T03:43:29.462Z,2.83
2018-06-30T03:44:03.997Z,2.37
2018-06-30T03:44:38.402Z,2.93
2018-06-30T03:45:12.330Z,1.30
2018-06-30T03:45:46.530Z,2.93
2018-06-30T03:46:20.754Z,2.00
2018-06-30T03:46:54.836Z,2.60
2018-06-30T03:47:29.036Z,3.80
2018-06-30T03:48:03.395Z,3.67
2018-06-30T03:48:37.610Z,2.50
2018-06-30T03:49:11.508Z,2.90
2018-06-30T03:49:45.812Z,5.03
2018-06-30T03:50:19.708Z,2.43
2018-06-30T03:50:53.587Z,3.20
2018-06-30T03:51:28.022Z,4.00
2018-06-30T03:52:09.206Z,1.40
2018-06-30T03:52:43.050Z,2.13
2018-06-30T03:53:16.946Z,4.77
2018-06-30T03:53:51.056Z,5.12
2018-06-30T03:54:24.902Z,3.97
2018-06-30T03:54:59.448Z,2.03
2018-06-30T03:55:33.656Z,1.83
2018-06-30T03:56:07.532Z,2.60
2018-06-30T03:56:41.810Z,4.07
2018-06-30T03:57:15.676Z,1.40
2018-06-30T03:57:49.845Z,3.70
2018-06-30T03:58:23.699Z,3.03
2018-06-30T03:58:57.901Z,3.60
2018-06-30T03:59:32.104Z,2.10
2018-06-30T04:00:06.454Z,1.97
2018-06-30T04:00:40.692Z,2.20
2018-06-30T04:01:14.906Z,4.70
2018-06-30T04:01:48.528Z,3.10
2018-06-30T04:02:22.294Z,1.60
2018-06-30T04:02:56.154Z,2.67
2018-06-30T04:03:29.860Z,1.97
2018-06-30T04:04:03.651Z,2.20
2018-06-30T04:04:37.753Z,1.60
2018-06-30T04:05:11.990Z,2.10
2018-06-30T04:06:26.304Z,2.90
2018-06-30T04:07:00.172Z,4.40
2018-06-30T04:07:34.036Z,3.00
2018-06-30T04:08:07.906Z,1.83
2018-06-30T04:08:42.090Z,5.47
2018-06-30T04:09:15.981Z,2.90
2018-06-30T04:09:49.843Z,2.20
2018-06-30T04:10:23.976Z,3.13
2018-06-30T04:10:57.884Z,1.30
2018-06-30T04:11:31.764Z,1.90
2018-06-30T04:12:05.660Z,1.87
2018-06-30T04:12:39.542Z,4.20
2018-06-30T04:13:13.207Z,1.50
2018-06-30T04:13:46.986Z,2.53
2018-06-30T04:14:21.202Z,1.70
2018-06-30T04:14:56.325Z,3.23
2018-06-30T04:15:30.206Z,2.70
2018-06-30T04:16:04.440Z,1.83
2018-06-30T04:16:38.435Z,1.77
2018-06-30T04:17:12.582Z,3.93
2018-06-30T04:17:46.423Z,1.80
2018-06-30T04:18:20.068Z,2.40
2018-06-30T04:18:56.964Z,3.50
2018-06-30T04:19:30.825Z,1.47
2018-06-30T04:20:04.702Z,4.20
2018-06-30T04:20:38.590Z,3.37
2018-06-30T04:21:12.429Z,2.43
2018-06-30T04:21:47.330Z,1.70
2018-06-30T04:22:21.209Z,2.27
2018-06-30T04:22:55.125Z,2.30
2018-06-30T04:24:09.236Z,2.40
2018-06-30T04:24:43.410Z,1.53
2018-06-30T04:25:17.289Z,2.13
2018-06-30T04:25:51.210Z,2.07
2018-06-30T04:26:25.090Z,2.50
2018-06-30T04:26:58.950Z,2.20
2018-06-30T04:27:32.840Z,2.47
2018-06-30T04:28:06.805Z,1.57
2018-06-30T04:28:40.652Z,4.17
2018-06-30T04:29:14.726Z,3.97
2018-06-30T04:29:48.985Z,1.93
2018-06-30T04:30:23.171Z,3.77
2018-06-30T04:30:57.097Z,1.57
2018-06-30T04:31:30.979Z,2.20
2018-06-30T04:32:04.890Z,2.60
2018-06-30T04:32:39.111Z,2.33
2018-06-30T04:33:13.360Z,1.20
2018-06-30T04:33:47.550Z,3.40
2018-06-30T04:34:21.718Z,1.90
2018-06-30T04:34:55.924Z,1.30
2018-06-30T04:35:30.086Z,2.70
2018-06-30T04:36:04.002Z,2.03
2018-06-30T04:36:37.910Z,2.00
2018-06-30T04:37:12.121Z,1.30
2018-06-30T04:37:46.352Z,3.83
2018-06-30T04:38:20.776Z,1.50
2018-06-30T04:38:54.978Z,2.30
2018-06-30T04:39:28.822Z,2.23
2018-06-30T04:40:04.449Z,1.40
2018-06-30T04:40:38.298Z,2.33
2018-06-30T04:41:12.519Z,4.53
2018-06-30T04:41:46.418Z,3.13
2018-06-30T04:42:20.630Z,1.87
2018-06-30T04:42:54.808Z,1.57
2018-06-30T04:43:28.665Z,2.03
2018-06-30T04:44:02.545Z,2.97
2018-06-30T04:44:36.432Z,2.53
2018-06-30T04:45:10.317Z,2.10
2018-06-30T04:45:44.345Z,3.10
2018-06-30T04:46:18.573Z,2.80
2018-06-30T04:46:52.426Z,2.80
2018-06-30T04:47:26.272Z,3.17
2018-06-30T04:48:00.550Z,2.37
2018-06-30T04:48:34.430Z,2.53
2018-06-30T04:49:08.270Z,3.10
2018-06-30T04:49:42.112Z,1.60
2018-06-30T04:50:15.958Z,2.33
2018-06-30T04:50:50.178Z,1.90
2018-06-30T04:51:24.429Z,1.43
2018-06-30T04:51:58.696Z,1.30
2018-06-30T04:52:32.540Z,8.00
2018-06-30T04:53:06.420Z,4.13
2018-06-30T04:53:40.301Z,1.30
2018-06-30T04:54:14.692Z,2.20
2018-06-30T04:54:48.556Z,1.67
2018-06-30T04:55:22.750Z,1.77
2018-06-30T04:55:56.970Z,2.23
2018-06-30T04:56:30.936Z,2.47
2018-06-30T04:57:04.846Z,1.33
2018-06-30T04:57:38.812Z,1.73
2018-06-30T04:58:12.832Z,3.47
2018-06-30T04:58:46.736Z,2.30
2018-06-30T04:59:20.934Z,3.13
2018-06-30T04:59:54.827Z,2.50
2018-06-30T05:00:29.062Z,2.57
2018-06-30T05:01:02.957Z,3.40
2018-06-30T05:01:37.523Z,1.53
2018-06-30T05:02:11.402Z,2.47
2018-06-30T05:02:45.309Z,1.00
2018-06-30T05:03:19.469Z,4.33
2018-06-30T05:03:53.346Z,2.50
2018-06-30T05:04:27.625Z,1.10
2018-06-30T05:05:01.259Z,1.60
2018-06-30T05:05:34.984Z,1.77
2018-06-30T05:06:09.528Z,4.03
2018-06-30T05:06:43.760Z,3.87
2018-06-30T05:07:17.941Z,5.47
2018-06-30T05:07:51.817Z,4.80
2018-06-30T05:08:25.892Z,1.30
2018-06-30T05:09:00.164Z,3.37
2018-06-30T05:09:33.995Z,3.63
2018-06-30T05:10:07.856Z,4.20
2018-06-30T05:10:42.090Z,3.27
2018-06-30T05:11:15.716Z,6.00
2018-06-30T05:11:49.498Z,1.77
2018-06-30T05:12:23.344Z,3.13
2018-06-30T05:12:57.726Z,2.47
2018-06-30T05:13:31.740Z,2.00
2018-06-30T05:14:05.964Z,1.40
2018-06-30T05:14:39.800Z,1.70
2018-06-30T05:15:13.675Z,2.83
2018-06-30T05:15:47.892Z,2.63
2018-06-30T05:16:21.744Z,3.73
2018-06-30T05:16:55.970Z,2.60
2018-06-30T05:17:29.621Z,1.83
2018-06-30T05:18:03.499Z,1.10
2018-06-30T05:18:37.706Z,3.13
2018-06-30T05:19:12.238Z,2.07
2018-06-30T05:19:46.082Z,2.73
2018-06-30T05:20:20.042Z,2.27
2018-06-30T05:20:54.234Z,1.93
2018-06-30T05:21:28.124Z,2.53
2018-06-30T05:22:02.412Z,1.43
2018-06-30T05:22:36.289Z,1.07
2018-06-30T05:23:10.192Z,1.60
2018-06-30T05:23:44.431Z,3.20
2018-06-30T05:24:18.310Z,2.10
2018-06-30T05:24:52.242Z,1.30
2018-06-30T05:25:26.782Z,4.83
2018-06-30T05:26:00.804Z,1.60
2018-06-30T05:26:34.794Z,1.63
2018-06-30T05:27:09.129Z,1.70
2018-06-30T05:27:43.009Z,2.57
2018-06-30T05:28:16.897Z,2.43
2018-06-30T05:28:50.902Z,1.90
2018-06-30T05:29:25.056Z,5.40
2018-06-30T05:29:58.951Z,2.13
2018-06-30T05:30:32.888Z,1.80
2018-06-30T05:31:07.145Z,3.67
2018-06-30T05:31:41.048Z,1.47
2018-06-30T05:32:15.418Z,2.03
2018-06-30T05:32:49.552Z,1.23
2018-06-30T05:33:23.980Z,1.10
2018-06-30T05:33:58.072Z,1.87
2018-06-30T05:34:31.756Z,3.90
2018-06-30T05:35:06.246Z,2.63
2018-06-30T05:35:41.199Z,1.27
2018-06-30T05:36:15.080Z,3.60
2018-06-30T05:36:48.950Z,3.10
2018-06-30T05:37:23.178Z,2.23
2018-06-30T05:37:57.362Z,1.93
2018-06-30T05:38:31.560Z,1.83
2018-06-30T05:39:07.295Z,1.37
2018-06-30T05:39:41.230Z,1.40
2018-06-30T05:40:15.486Z,1.37
2018-06-30T05:40:49.524Z,1.40
2018-06-30T05:41:23.694Z,1.13
2018-06-30T05:41:57.871Z,1.63
2018-06-30T05:42:32.114Z,2.33
2018-06-30T05:43:06.195Z,1.83
2018-06-30T05:43:40.082Z,1.57
2018-06-30T05:44:13.922Z,2.60
2018-06-30T05:44:48.116Z,5.07
2018-06-30T05:45:22.036Z,1.60
2018-06-30T05:45:56.234Z,1.47
2018-06-30T05:46:30.402Z,5.37
2018-06-30T05:47:04.288Z,1.30
2018-06-30T05:47:38.187Z,1.27
2018-06-30T05:48:12.047Z,2.47
2018-06-30T05:48:46.267Z,4.10
2018-06-30T05:49:20.276Z,3.20
2018-06-30T05:49:54.490Z,1.37
2018-06-30T05:50:28.341Z,1.17
2018-06-30T05:51:02.254Z,1.50
2018-06-30T05:51:36.352Z,5.80
2018-06-30T05:52:10.570Z,0.90
2018-06-30T05:52:44.501Z,1.80
2018-06-30T05:53:18.490Z,1.80
2018-06-30T05:53:52.623Z,1.43
2018-06-30T05:54:26.478Z,4.53
2018-06-30T05:55:00.399Z,3.17
2018-06-30T05:55:34.293Z,3.33
2018-06-30T05:56:08.501Z,3.07
2018-06-30T05:56:42.411Z,1.63
2018-06-30T05:57:16.685Z,2.80
2018-06-30T05:57:50.958Z,2.30
2018-06-30T05:58:24.807Z,1.37
2018-06-30T05:58:58.680Z,1.60
2018-06-30T05:59:32.844Z,3.10
2018-06-30T06:00:06.934Z,2.17
2018-06-30T06:00:41.470Z,2.60
2018-06-30T06:01:15.707Z,1.53
2018-06-30T06:01:49.623Z,2.50
2018-06-30T06:02:23.524Z,3.03
2018-06-30T06:02:57.756Z,0.93
2018-06-30T06:03:32.056Z,1.30
2018-06-30T06:04:06.294Z,3.00
2018-06-30T06:04:40.192Z,4.93
2018-06-30T06:05:14.049Z,1.80
2018-06-30T06:05:47.894Z,2.07
2018-06-30T06:06:22.172Z,4.50
2018-06-30T06:06:56.423Z,2.97
2018-06-30T06:07:30.025Z,3.40
2018-06-30T06:08:04.586Z,1.00
2018-06-30T06:08:39.134Z,2.10
2018-06-30T06:09:13.552Z,2.23
2018-06-30T06:09:47.487Z,1.90
2018-06-30T06:10:21.494Z,5.13
2018-06-30T06:10:55.705Z,2.63
2018-06-30T06:11:29.909Z,4.97
2018-06-30T06:12:04.122Z,2.90
2018-06-30T06:12:38.008Z,3.43
2018-06-30T06:13:12.080Z,2.60
2018-06-30T06:13:45.946Z,2.03
2018-06-30T06:14:19.801Z,2.30
2018-06-30T06:14:53.822Z,1.57
2018-06-30T06:15:27.754Z,2.83
2018-06-30T06:16:02.047Z,4.37
2018-06-30T06:16:36.545Z,3.07
2018-06-30T06:17:10.420Z,2.73
2018-06-30T06:17:44.311Z,1.47
2018-06-30T06:18:18.832Z,2.45
2018-06-30T06:18:52.683Z,2.93
2018-06-30T06:19:26.326Z,3.13
2018-06-30T06:20:00.101Z,1.60
2018-06-30T06:20:33.999Z,1.57
2018-06-30T06:21:08.457Z,1.97
2018-06-30T06:21:42.891Z,1.43
2018-06-30T06:22:17.471Z,2.80
2018-06-30T06:22:51.352Z,1.80
2018-06-30T06:23:25.285Z,2.93
2018-06-30T06:23:59.165Z,4.03
2018-06-30T06:24:33.369Z,3.23
2018-06-30T06:25:07.560Z,1.20
2018-06-30T06:25:41.792Z,4.53
2018-06-30T06:26:15.641Z,4.13
2018-06-30T06:26:50.249Z,3.97
2018-06-30T06:27:24.445Z,0.90
2018-06-30T06:27:58.887Z,4.17
2018-06-30T06:28:32.768Z,3.77
2018-06-30T06:29:07.568Z,3.20
2018-06-30T06:29:41.425Z,4.77
2018-06-30T06:30:15.682Z,1.73
2018-06-30T06:30:49.641Z,1.60
2018-06-30T06:31:23.504Z,1.67
2018-06-30T06:31:57.687Z,2.70
2018-06-30T06:32:31.607Z,2.83
2018-06-30T06:33:05.560Z,2.80
2018-06-30T06:33:39.811Z,2.70
2018-06-30T06:34:13.683Z,2.60
2018-06-30T06:34:47.307Z,1.30
2018-06-30T06:35:21.395Z,2.17
2018-06-30T06:35:55.495Z,1.80
2018-06-30T06:36:30.017Z,2.60
2018-06-30T06:37:03.953Z,1.23
2018-06-30T06:37:37.831Z,2.53
2018-06-30T06:38:11.773Z,1.77
2018-06-30T06:38:45.786Z,2.80
2018-06-30T06:39:19.562Z,1.43
2018-06-30T06:39:53.439Z,1.20
2018-06-30T06:40:27.325Z,2.60
2018-06-30T06:41:01.195Z,1.00
2018-06-30T06:41:35.406Z,1.20
2018-06-30T06:42:09.281Z,2.13
2018-06-30T06:42:43.682Z,4.07
2018-06-30T06:43:17.584Z,1.23
2018-06-30T06:43:51.511Z,3.40
2018-06-30T06:44:25.690Z,1.90
2018-06-30T06:44:59.879Z,3.93
2018-06-30T06:45:33.753Z,2.43
2018-06-30T06:46:07.970Z,1.07
2018-06-30T06:46:41.872Z,2.60
2018-06-30T06:47:15.720Z,1.60
2018-06-30T06:47:50.909Z,1.50
2018-06-30T06:48:25.109Z,1.40
2018-06-30T06:48:59.351Z,1.43
2018-06-30T06:49:33.245Z,4.40
2018-06-30T06:50:07.504Z,1.33
2018-06-30T06:50:41.383Z,1.90
2018-06-30T06:51:15.295Z,2.17
2018-06-30T06:51:49.643Z,1.90
2018-06-30T06:52:23.513Z,1.50
2018-06-30T06:52:57.398Z,2.97
2018-06-30T06:53:31.251Z,3.23
2018-06-30T06:54:05.159Z,1.43
2018-06-30T06:54:39.035Z,3.30
2018-06-30T06:55:12.899Z,4.30
2018-06-30T06:55:47.135Z,2.53
2018-06-30T06:56:20.985Z,1.23
2018-06-30T06:56:55.357Z,2.97
2018-06-30T06:57:29.215Z,4.60
2018-06-30T06:58:03.351Z,2.07
2018-06-30T06:58:37.199Z,3.27
2018-06-30T06:59:11.177Z,1.93
2018-06-30T06:59:45.144Z,1.77
2018-06-30T07:00:19.341Z,2.60
2018-06-30T07:00:53.188Z,3.70
2018-06-30T07:01:27.091Z,1.67
2018-06-30T07:02:00.979Z,1.70
2018-06-30T07:02:35.028Z,2.80
2018-06-30T07:03:09.341Z,3.37
2018-06-30T07:03:43.556Z,1.23
2018-06-30T07:04:17.504Z,3.07
2018-06-30T07:04:51.726Z,1.40
2018-06-30T07:05:25.809Z,3.70
2018-06-30T07:06:00.350Z,5.60
2018-06-30T07:06:34.781Z,1.97
2018-06-30T07:07:08.759Z,2.23
2018-06-30T07:07:42.673Z,5.63
2018-06-30T07:08:16.525Z,1.90
2018-06-30T07:08:50.415Z,2.40
2018-06-30T07:09:24.658Z,1.00
2018-06-30T07:09:59.493Z,2.33
2018-06-30T07:10:33.123Z,3.10
2018-06-30T07:11:06.899Z,1.67
2018-06-30T07:11:41.561Z,2.73
2018-06-30T07:12:15.787Z,1.53
2018-06-30T07:12:49.833Z,2.37
2018-06-30T07:13:24.700Z,2.03
2018-06-30T07:13:58.611Z,1.57
2018-06-30T07:14:32.544Z,2.27
2018-06-30T07:15:06.791Z,4.10
2018-06-30T07:15:40.854Z,2.40
2018-06-30T07:16:14.746Z,1.87
2018-06-30T07:16:49.270Z,5.70
2018-06-30T07:17:23.142Z,1.00
2018-06-30T07:17:57.030Z,12.73
2018-06-30T07:18:30.878Z,1.83
2018-06-30T07:19:04.637Z,1.63
2018-06-30T07:19:38.459Z,1.00
2018-06-30T07:20:12.099Z,1.93
2018-06-30T07:20:45.973Z,3.07
2018-06-30T07:21:19.858Z,1.67
2018-06-30T07:21:54.141Z,1.50
2018-06-30T07:22:27.813Z,4.00
2018-06-30T07:23:01.401Z,3.53
2018-06-30T07:23:34.914Z,3.00
2018-06-30T07:24:08.695Z,2.10
2018-06-30T07:24:42.602Z,1.63
2018-06-30T07:25:16.842Z,1.30
2018-06-30T07:25:51.129Z,2.87
2018-06-30T07:26:24.985Z,1.20
2018-06-30T07:26:58.893Z,3.13
2018-06-30T07:27:32.836Z,2.07
2018-06-30T07:28:07.682Z,2.80
2018-06-30T07:28:41.900Z,2.03
2018-06-30T07:29:15.768Z,2.60
2018-06-30T07:29:49.648Z,3.13
2018-06-30T07:30:23.858Z,2.00
2018-06-30T07:30:57.728Z,1.23
2018-06-30T07:31:31.638Z,2.00
2018-06-30T07:32:05.536Z,1.60
2018-06-30T07:32:39.784Z,2.67
2018-06-30T07:33:13.665Z,2.70
2018-06-30T07:33:47.893Z,3.73
2018-06-30T07:34:21.753Z,2.70
2018-06-30T07:34:55.681Z,3.30
2018-06-30T07:35:30.465Z,2.70
2018-06-30T07:36:04.666Z,1.77
2018-06-30T07:36:38.889Z,1.20
2018-06-30T07:37:12.783Z,1.20
2018-06-30T07:37:46.830Z,1.83
2018-06-30T07:38:21.043Z,3.10
2018-06-30T07:38:54.912Z,3.63
2018-06-30T07:39:28.775Z,1.47
2018-06-30T07:40:02.395Z,2.43
2018-06-30T07:40:36.197Z,1.10
2018-06-30T07:41:10.739Z,4.33